createdAt,value
2023-01-17T00:02:21.714Z,98947.22
2023-01-17T00:05:07.688Z,98939.75
2023-01-17T00:07:53.163Z,98950.91
2023-01-17T00:10:24.092Z,98954.63
2023-01-17T00:13:02.583Z,98953.97
2023-01-17T00:15:31.405Z,98959.13
2023-01-17T00:17:59.325Z,98955.03
2023-01-17T00:20:47.083Z,98969.66
2023-01-17T00:23:37.750Z,98954.81
2023-01-17T00:26:09.723Z,98944.34
2023-01-17T00:28:38.978Z,98947.69
2023-01-17T00:31:07.752Z,98948.97
2023-01-17T00:33:35.431Z,98945.69
2023-01-17T00:36:03.202Z,98931.88
2023-01-17T00:38:33.064Z,98955.25
2023-01-17T00:41:08.533Z,98940.97
2023-01-17T00:43:54.399Z,98948.13
2023-01-17T00:46:39.758Z,98950.13
2023-01-17T00:49:26.043Z,98948.53
2023-01-17T00:52:11.630Z,98963.13
2023-01-17T00:54:57.252Z,98965.97
2023-01-17T00:57:42.924Z,98962.94
2023-01-17T01:00:28.807Z,98968.06
2023-01-17T01:03:14.470Z,98967.03
2023-01-17T01:06:00.059Z,98954.53
2023-01-17T01:08:47.703Z,98950.22
2023-01-17T01:11:37.074Z,98947.38
2023-01-17T01:14:24.112Z,98945.00
2023-01-17T01:17:09.772Z,98945.00
2023-01-17T01:19:55.289Z,98941.72
2023-01-17T01:22:40.763Z,98940.03
2023-01-17T01:25:26.895Z,98944.56
2023-01-17T01:28:12.539Z,98943.91
2023-01-17T01:30:57.947Z,98935.31
2023-01-17T01:33:24.713Z,98905.72
2023-01-17T01:35:55.538Z,98900.78
2023-01-17T01:38:24.649Z,98882.09
2023-01-17T01:40:56.850Z,98886.22
2023-01-17T01:43:44.529Z,98886.63
2023-01-17T01:46:18.389Z,98877.69
2023-01-17T01:48:53.301Z,98875.09
2023-01-17T01:51:25.837Z,98881.16
2023-01-17T01:53:55.885Z,98874.88
2023-01-17T01:56:23.714Z,98870.38
2023-01-17T01:58:52.832Z,98878.13
2023-01-17T02:01:20.272Z,98877.41
2023-01-17T02:03:48.070Z,98861.13
2023-01-17T02:06:39.978Z,98857.69
2023-01-17T02:09:10.806Z,98856.22
2023-01-17T02:11:40.165Z,98849.72
2023-01-17T02:14:08.842Z,98852.03
2023-01-17T02:16:44.927Z,98862.91
2023-01-17T02:19:55.235Z,98868.53
2023-01-17T02:22:48.423Z,98871.25
2023-01-17T02:25:38.033Z,98858.69
2023-01-17T02:28:46.502Z,98856.63
2023-01-17T02:31:39.415Z,98857.69
2023-01-17T02:34:21.710Z,98851.38
2023-01-17T02:37:00.988Z,98840.25
2023-01-17T02:39:34.622Z,98837.38
2023-01-17T02:42:06.648Z,98850.19
2023-01-17T02:44:40.943Z,98848.94
2023-01-17T02:47:27.668Z,98864.88
2023-01-17T02:49:59.077Z,98866.88
2023-01-17T02:52:44.472Z,98860.88
2023-01-17T02:55:20.397Z,98869.50
2023-01-17T02:58:20.753Z,98886.84
2023-01-17T03:01:08.714Z,98881.66
2023-01-17T03:03:54.299Z,98869.63
2023-01-17T03:06:32.517Z,98880.88
2023-01-17T03:08:59.382Z,98874.34
2023-01-17T03:11:27.298Z,98870.13
2023-01-17T03:13:57.865Z,98877.81
2023-01-17T03:16:27.715Z,98858.94
2023-01-17T03:18:55.207Z,98878.44
2023-01-17T03:21:23.479Z,98858.69
2023-01-17T03:23:50.502Z,98859.13
2023-01-17T03:26:17.496Z,98847.59
2023-01-17T03:28:44.797Z,98849.78
2023-01-17T03:31:18.010Z,98843.41
2023-01-17T03:33:44.931Z,98840.25
2023-01-17T03:36:12.361Z,98839.75
2023-01-17T03:38:39.435Z,98833.34
2023-01-17T03:41:06.807Z,98825.75
2023-01-17T03:43:33.736Z,98828.31
2023-01-17T03:46:06.325Z,98830.41
2023-01-17T03:48:33.550Z,98821.78
2023-01-17T03:51:00.407Z,98821.38
2023-01-17T03:53:27.268Z,98830.16
2023-01-17T03:55:54.098Z,98815.38
2023-01-17T03:58:20.940Z,98822.53
2023-01-17T04:00:47.932Z,98814.56
2023-01-17T04:03:14.777Z,98816.22
2023-01-17T04:05:41.599Z,98828.19
2023-01-17T04:08:08.462Z,98829.34
2023-01-17T04:10:35.634Z,98817.81
2023-01-17T04:13:02.431Z,98809.00
2023-01-17T04:15:29.454Z,98813.41
2023-01-17T04:17:56.899Z,98822.84
2023-01-17T04:20:32.337Z,98823.75
2023-01-17T04:22:59.212Z,98831.75
2023-01-17T04:25:26.356Z,98811.44
2023-01-17T04:27:54.188Z,98817.53
2023-01-17T04:30:21.187Z,98821.81
2023-01-17T04:32:48.142Z,98823.44
2023-01-17T04:35:15.374Z,98810.66
2023-01-17T04:37:42.311Z,98811.41
2023-01-17T04:40:10.372Z,98826.78
2023-01-17T04:42:37.607Z,98818.97
2023-01-17T04:45:05.490Z,98818.03
2023-01-17T04:47:34.407Z,98815.97
2023-01-17T04:50:01.275Z,98810.47
2023-01-17T04:52:28.259Z,98813.03
2023-01-17T04:54:55.193Z,98817.09
2023-01-17T04:57:22.070Z,98818.28
2023-01-17T04:59:48.956Z,98808.69
2023-01-17T05:02:15.819Z,98808.03
2023-01-17T05:04:42.687Z,98802.34
2023-01-17T05:07:09.660Z,98808.28
2023-01-17T05:09:36.563Z,98820.16
2023-01-17T05:12:03.378Z,98818.19
2023-01-17T05:14:30.254Z,98828.75
2023-01-17T05:16:57.674Z,98831.47
2023-01-17T05:19:25.799Z,98841.16
2023-01-17T05:21:52.827Z,98841.06
2023-01-17T05:24:20.092Z,98847.56
2023-01-17T05:26:54.740Z,98837.03
2023-01-17T05:29:22.197Z,98846.41
2023-01-17T05:31:49.139Z,98845.84
2023-01-17T05:34:17.164Z,98845.78
2023-01-17T05:36:44.499Z,98836.66
2023-01-17T05:39:11.321Z,98831.28
2023-01-17T05:41:38.130Z,98838.72
2023-01-17T05:44:05.164Z,98845.47
2023-01-17T05:46:32.286Z,98839.16
2023-01-17T05:48:59.198Z,98842.09
2023-01-17T05:51:26.047Z,98845.13
2023-01-17T05:53:52.959Z,98849.25
2023-01-17T05:56:19.751Z,98858.78
2023-01-17T05:58:46.921Z,98855.34
2023-01-17T06:01:13.896Z,98857.97
2023-01-17T06:03:40.756Z,98859.84
2023-01-17T06:06:07.761Z,98865.28
2023-01-17T06:08:34.607Z,98858.31
2023-01-17T06:11:01.455Z,98851.44
2023-01-17T06:13:28.280Z,98860.75
2023-01-17T06:15:57.808Z,98851.66
2023-01-17T06:18:24.693Z,98836.91
2023-01-17T06:20:55.338Z,98849.22
2023-01-17T06:23:22.777Z,98853.72
2023-01-17T06:25:50.477Z,98864.75
2023-01-17T06:28:20.618Z,98860.16
2023-01-17T06:30:47.847Z,98853.78
2023-01-17T06:33:15.458Z,98853.28
2023-01-17T06:35:52.970Z,98852.13
2023-01-17T06:38:20.356Z,98849.16
2023-01-17T06:40:47.454Z,98847.88
2023-01-17T06:43:14.324Z,98847.53
2023-01-17T06:45:41.194Z,98846.78
2023-01-17T06:48:08.247Z,98845.97
2023-01-17T06:50:35.297Z,98847.25
2023-01-17T06:53:06.961Z,98826.84
2023-01-17T06:55:34.928Z,98828.00
2023-01-17T06:58:05.099Z,98839.34
2023-01-17T07:00:35.228Z,98837.31
2023-01-17T07:03:02.349Z,98845.56
2023-01-17T07:05:29.541Z,98846.47
2023-01-17T07:07:57.835Z,98850.53
2023-01-17T07:10:24.691Z,98852.34
2023-01-17T07:12:51.612Z,98855.78
2023-01-17T07:15:18.555Z,98871.34
2023-01-17T07:17:45.582Z,98866.69
2023-01-17T07:20:13.604Z,98864.88
2023-01-17T07:22:44.374Z,98851.91
2023-01-17T07:25:11.217Z,98854.97
2023-01-17T07:27:38.192Z,98853.06
2023-01-17T07:30:05.576Z,98856.00
2023-01-17T07:32:32.430Z,98870.00
2023-01-17T07:34:59.552Z,98876.16
2023-01-17T07:37:26.532Z,98894.13
2023-01-17T07:39:54.624Z,98886.91
2023-01-17T07:42:23.972Z,98874.84
2023-01-17T07:44:51.163Z,98866.84
2023-01-17T07:47:18.069Z,98860.97
2023-01-17T07:49:44.851Z,98889.75
2023-01-17T07:52:11.793Z,98880.38
2023-01-17T07:54:38.684Z,98877.44
2023-01-17T07:57:05.524Z,98875.13
2023-01-17T07:59:34.660Z,98872.69
2023-01-17T08:02:01.719Z,98861.63
2023-01-17T08:04:34.830Z,98847.75
2023-01-17T08:07:02.125Z,98836.28
2023-01-17T08:09:29.109Z,98830.38
2023-01-17T08:11:56.094Z,98829.94
2023-01-17T08:14:22.941Z,98840.66
2023-01-17T08:16:49.925Z,98864.22
2023-01-17T08:19:17.266Z,98861.09
2023-01-17T08:21:44.123Z,98856.19
2023-01-17T08:24:13.634Z,98868.19
2023-01-17T08:26:41.157Z,98853.00
2023-01-17T08:29:08.923Z,98848.84
2023-01-17T08:31:36.811Z,98840.66
2023-01-17T08:34:04.274Z,98840.00
2023-01-17T08:36:31.498Z,98848.25
2023-01-17T08:38:58.969Z,98847.25
2023-01-17T08:41:27.879Z,98839.53
2023-01-17T08:43:54.815Z,98825.31
2023-01-17T08:46:22.498Z,98831.28
2023-01-17T08:48:53.492Z,98822.25
2023-01-17T08:51:20.391Z,98827.63
2023-01-17T08:53:48.620Z,98808.16
2023-01-17T08:56:15.391Z,98811.44
2023-01-17T08:58:42.495Z,98804.31
2023-01-17T09:01:09.427Z,98811.22
2023-01-17T09:03:39.444Z,98817.34
2023-01-17T09:06:10.543Z,98821.78
2023-01-17T09:08:38.308Z,98829.50
2023-01-17T09:11:13.512Z,98828.97
2023-01-17T09:13:40.749Z,98837.88
2023-01-17T09:16:08.141Z,98841.34
2023-01-17T09:18:35.928Z,98843.53
2023-01-17T09:21:16.943Z,98850.78
2023-01-17T09:23:44.052Z,98848.16
2023-01-17T09:26:20.912Z,98848.41
2023-01-17T09:28:48.686Z,98852.22
2023-01-17T09:31:17.492Z,98837.56
2023-01-17T09:33:44.851Z,98832.22
2023-01-17T09:36:11.821Z,98834.34
2023-01-17T09:38:40.161Z,98832.16
2023-01-17T09:41:33.143Z,98830.44
2023-01-17T09:44:47.767Z,98816.00
2023-01-17T09:47:39.277Z,98809.59
2023-01-17T09:50:31.717Z,98811.25
2023-01-17T09:53:03.233Z,98814.06
2023-01-17T09:55:52.266Z,98805.28
2023-01-17T09:58:25.172Z,98793.94
2023-01-17T10:00:55.020Z,98801.75
2023-01-17T10:03:52.545Z,98802.09
2023-01-17T10:06:43.751Z,98802.84
2023-01-17T10:09:16.219Z,98801.19
2023-01-17T10:11:56.129Z,98796.00
2023-01-17T10:14:46.164Z,98799.78
2023-01-17T10:17:16.317Z,98795.00
2023-01-17T10:19:49.303Z,98803.97
2023-01-17T10:22:25.109Z,98799.66
2023-01-17T10:25:16.095Z,98801.31
2023-01-17T10:28:12.436Z,98798.19
2023-01-17T10:30:48.879Z,98781.56
2023-01-17T10:33:28.746Z,98782.06
2023-01-17T10:36:03.804Z,98787.19
2023-01-17T10:38:38.888Z,98774.25
2023-01-17T10:41:18.765Z,98774.91
2023-01-17T10:44:10.320Z,98770.22
2023-01-17T10:46:55.443Z,98768.94
2023-01-17T10:49:27.092Z,98765.75
2023-01-17T10:52:18.240Z,98764.81
2023-01-17T10:55:04.105Z,98768.63
2023-01-17T10:57:42.530Z,98763.44
2023-01-17T11:00:51.409Z,98766.75
2023-01-17T11:03:23.876Z,98759.47
2023-01-17T11:06:23.198Z,98768.91
2023-01-17T11:08:51.565Z,98762.06
2023-01-17T11:11:21.614Z,98756.00
2023-01-17T11:13:50.728Z,98759.00
2023-01-17T11:16:26.729Z,98752.34
2023-01-17T11:19:30.747Z,98751.03
2023-01-17T11:22:01.854Z,98758.47
2023-01-17T11:24:51.504Z,98755.31
2023-01-17T11:27:27.170Z,98751.47
2023-01-17T11:30:15.965Z,98748.13
2023-01-17T11:32:59.160Z,98746.28
2023-01-17T11:35:37.413Z,98739.66
2023-01-17T11:38:20.568Z,98735.66
2023-01-17T11:40:49.507Z,98731.56
2023-01-17T11:43:24.420Z,98736.00
2023-01-17T11:46:18.107Z,98728.34
2023-01-17T11:49:00.637Z,98727.53
2023-01-17T11:51:29.644Z,98728.53
2023-01-17T11:54:06.965Z,98735.19
2023-01-17T11:56:36.700Z,98731.34
2023-01-17T11:59:26.868Z,98716.72
2023-01-17T12:02:32.072Z,98719.03
2023-01-17T12:05:44.195Z,98713.41
2023-01-17T12:08:41.278Z,98706.44
2023-01-17T12:11:10.997Z,98712.78
2023-01-17T12:14:02.760Z,98711.44
2023-01-17T12:16:57.269Z,98719.63
2023-01-17T12:19:43.724Z,98721.06
2023-01-17T12:22:20.007Z,98710.13
2023-01-17T12:24:52.903Z,98702.47
2023-01-17T12:27:23.035Z,98715.97
2023-01-17T12:30:03.473Z,98720.09
2023-01-17T12:32:53.076Z,98717.28
2023-01-17T12:35:40.888Z,98716.41
2023-01-17T12:38:31.660Z,98713.44
2023-01-17T12:41:23.453Z,98721.09
2023-01-17T12:43:54.165Z,98725.03
2023-01-17T12:46:32.844Z,98727.34
2023-01-17T12:49:20.541Z,98734.00
2023-01-17T12:51:53.029Z,98726.38
2023-01-17T12:54:28.996Z,98717.25
2023-01-17T12:57:22.095Z,98705.59
2023-01-17T13:00:00.628Z,98694.97
2023-01-17T13:02:52.313Z,98690.31
2023-01-17T13:05:33.418Z,98692.53
2023-01-17T13:08:10.199Z,98692.97
2023-01-17T13:10:52.143Z,98694.13
2023-01-17T13:13:24.257Z,98696.88
2023-01-17T13:16:07.545Z,98695.03
2023-01-17T13:18:38.054Z,98700.31
2023-01-17T13:21:33.352Z,98699.41
2023-01-17T13:24:02.226Z,98704.97
2023-01-17T13:27:04.718Z,98704.88
2023-01-17T13:29:39.752Z,98710.13
2023-01-17T13:32:12.406Z,98705.75
2023-01-17T13:34:48.036Z,98708.53
2023-01-17T13:37:29.818Z,98713.97
2023-01-17T13:40:18.366Z,98723.66
2023-01-17T13:42:58.196Z,98711.72
2023-01-17T13:45:29.430Z,98710.91
2023-01-17T13:48:23.422Z,98710.25
2023-01-17T13:50:58.488Z,98695.38
2023-01-17T13:53:34.336Z,98699.94
2023-01-17T13:56:19.556Z,98712.91
2023-01-17T13:58:50.481Z,98715.53
2023-01-17T14:01:23.808Z,98721.22
2023-01-17T14:03:51.125Z,98716.84
2023-01-17T14:06:36.403Z,98716.78
2023-01-17T14:09:18.780Z,98708.44
2023-01-17T14:11:51.664Z,98715.03
2023-01-17T14:14:40.101Z,98712.31
2023-01-17T14:17:16.215Z,98709.38
2023-01-17T14:20:12.895Z,98711.88
2023-01-17T14:22:47.819Z,98710.38
2023-01-17T14:25:23.599Z,98707.47
2023-01-17T14:27:53.856Z,98707.72
2023-01-17T14:30:25.915Z,98711.44
2023-01-17T14:32:58.700Z,98710.06
2023-01-17T14:35:30.454Z,98710.22
2023-01-17T14:37:57.822Z,98719.16
2023-01-17T14:40:27.460Z,98723.31
2023-01-17T14:43:01.777Z,98720.81
2023-01-17T14:45:31.816Z,98720.00
2023-01-17T14:48:01.644Z,98707.19
2023-01-17T14:50:35.149Z,98707.13
2023-01-17T14:53:28.372Z,98706.38
2023-01-17T14:56:14.357Z,98720.06
2023-01-17T14:58:41.591Z,98723.16
2023-01-17T15:01:17.566Z,98713.22
2023-01-17T15:03:44.590Z,98718.91
2023-01-17T15:06:16.145Z,98717.25
2023-01-17T15:08:43.361Z,98715.59
2023-01-17T15:11:17.786Z,98713.84
2023-01-17T15:13:49.972Z,98719.09
2023-01-17T15:16:27.982Z,98719.78
2023-01-17T15:18:55.694Z,98726.44
2023-01-17T15:21:26.604Z,98723.09
2023-01-17T15:24:07.115Z,98715.50
2023-01-17T15:26:36.438Z,98718.94
2023-01-17T15:29:07.344Z,98721.97
2023-01-17T15:31:42.426Z,98726.38
2023-01-17T15:34:21.077Z,98723.16
2023-01-17T15:36:49.488Z,98726.88
2023-01-17T15:39:25.294Z,98723.25
2023-01-17T15:41:53.631Z,98724.72
2023-01-17T15:44:49.315Z,98727.41
2023-01-17T15:47:40.083Z,98727.66
2023-01-17T15:50:28.584Z,98725.84
2023-01-17T15:53:05.501Z,98720.81
2023-01-17T15:55:40.040Z,98730.59
2023-01-17T15:58:28.658Z,98721.13
2023-01-17T16:00:56.292Z,98729.19
2023-01-17T16:03:29.457Z,98729.91
2023-01-17T16:06:00.379Z,98736.31
2023-01-17T16:08:31.307Z,98740.78
2023-01-17T16:11:03.664Z,98742.16
2023-01-17T16:13:39.218Z,98738.53
2023-01-17T16:16:15.164Z,98726.34
2023-01-17T16:18:42.902Z,98735.66
2023-01-17T16:21:17.107Z,98746.44
2023-01-17T16:23:44.140Z,98743.00
2023-01-17T16:26:11.173Z,98744.44
2023-01-17T16:28:38.684Z,98751.25
2023-01-17T16:31:05.864Z,98747.34
2023-01-17T16:33:32.780Z,98755.06
2023-01-17T16:35:59.708Z,98763.00
2023-01-17T16:38:26.636Z,98753.78
2023-01-17T16:40:54.144Z,98753.81
2023-01-17T16:43:21.100Z,98758.56
2023-01-17T16:45:52.738Z,98759.91
2023-01-17T16:48:21.875Z,98770.41
2023-01-17T16:50:50.970Z,98759.69
2023-01-17T16:53:25.586Z,98778.22
2023-01-17T16:55:58.342Z,98775.53
2023-01-17T16:58:25.801Z,98781.56
2023-01-17T17:00:52.856Z,98774.88
2023-01-17T17:03:21.296Z,98774.06
2023-01-17T17:05:56.415Z,98771.53
2023-01-17T17:08:24.318Z,98768.75
2023-01-17T17:10:51.681Z,98769.56
2023-01-17T17:13:18.619Z,98762.47
2023-01-17T17:15:45.824Z,98774.06
2023-01-17T17:18:15.232Z,98763.75
2023-01-17T17:20:43.059Z,98770.97
2023-01-17T17:23:10.450Z,98760.41
2023-01-17T17:25:37.960Z,98763.31
2023-01-17T17:28:05.878Z,98759.28
2023-01-17T17:30:33.510Z,98759.72
2023-01-17T17:33:00.427Z,98757.06
2023-01-17T17:35:27.353Z,98768.78
2023-01-17T17:37:56.224Z,98770.69
2023-01-17T17:40:23.058Z,98759.97
2023-01-17T17:42:49.912Z,98766.53
2023-01-17T17:45:16.916Z,98763.75
2023-01-17T17:47:44.592Z,98758.34
2023-01-17T17:50:13.257Z,98754.56
2023-01-17T17:52:40.848Z,98747.88
2023-01-17T17:55:07.874Z,98751.50
2023-01-17T17:57:34.778Z,98748.19
2023-01-17T18:00:01.720Z,98750.09
2023-01-17T18:02:33.492Z,98752.06
2023-01-17T18:05:00.397Z,98749.81
2023-01-17T18:07:27.316Z,98752.59
2023-01-17T18:09:54.152Z,98754.72
2023-01-17T18:12:21.029Z,98754.84
2023-01-17T18:14:47.861Z,98744.53
2023-01-17T18:17:16.016Z,98745.13
2023-01-17T18:19:46.120Z,98746.34
2023-01-17T18:22:13.235Z,98754.00
2023-01-17T18:24:40.436Z,98747.88
2023-01-17T18:27:07.329Z,98743.72
2023-01-17T18:29:34.183Z,98752.06
2023-01-17T18:32:01.015Z,98749.00
2023-01-17T18:34:29.489Z,98749.41
2023-01-17T18:36:57.103Z,98755.25
2023-01-17T18:39:29.670Z,98752.91
2023-01-17T18:41:56.903Z,98744.28
2023-01-17T18:44:24.676Z,98747.47
2023-01-17T18:46:54.093Z,98736.75
2023-01-17T18:49:21.769Z,98726.19
2023-01-17T18:51:51.990Z,98736.03
2023-01-17T18:54:20.525Z,98743.00
2023-01-17T18:56:48.050Z,98737.88
2023-01-17T18:59:18.429Z,98748.72
2023-01-17T19:01:45.988Z,98747.88
2023-01-17T19:04:15.789Z,98747.34
2023-01-17T19:06:45.371Z,98756.22
2023-01-17T19:09:14.454Z,98750.38
2023-01-17T19:11:44.572Z,98753.59
2023-01-17T19:14:12.449Z,98747.03
2023-01-17T19:16:41.328Z,98749.97
2023-01-17T19:19:11.208Z,98743.84
2023-01-17T19:21:38.186Z,98738.84
2023-01-17T19:24:05.395Z,98738.13
2023-01-17T19:26:32.337Z,98734.09
2023-01-17T19:29:00.115Z,98728.81
2023-01-17T19:31:29.009Z,98735.47
2023-01-17T19:33:57.696Z,98736.59
2023-01-17T19:36:27.690Z,98732.31
2023-01-17T19:39:04.395Z,98743.31
2023-01-17T19:41:34.332Z,98750.25
2023-01-17T19:44:04.705Z,98752.63
2023-01-17T19:46:32.524Z,98748.16
2023-01-17T19:48:59.789Z,98757.59
2023-01-17T19:51:27.394Z,98753.59
2023-01-17T19:53:55.213Z,98749.28
2023-01-17T19:56:26.778Z,98759.56
2023-01-17T19:58:54.067Z,98758.56
2023-01-17T20:01:24.696Z,98752.31
2023-01-17T20:03:51.785Z,98751.66
2023-01-17T20:06:21.605Z,98755.09
2023-01-17T20:08:48.952Z,98763.19
2023-01-17T20:11:19.697Z,98757.91
2023-01-17T20:13:48.238Z,98744.81
2023-01-17T20:16:17.306Z,98753.94
2023-01-17T20:18:44.328Z,98755.59
2023-01-17T20:21:14.585Z,98752.50
2023-01-17T20:23:43.153Z,98752.31
2023-01-17T20:26:11.978Z,98755.34
2023-01-17T20:28:41.181Z,98750.06
2023-01-17T20:31:12.796Z,98758.16
2023-01-17T20:33:40.925Z,98736.13
2023-01-17T20:36:11.420Z,98736.16
2023-01-17T20:38:45.101Z,98749.25
2023-01-17T20:41:20.487Z,98746.13
2023-01-17T20:43:49.701Z,98748.97
2023-01-17T20:46:18.341Z,98745.88
2023-01-17T20:48:47.675Z,98752.44
2023-01-17T20:51:15.492Z,98733.28
2023-01-17T20:53:44.101Z,98754.88
2023-01-17T20:56:14.639Z,98750.00
2023-01-17T20:58:42.615Z,98748.78
2023-01-17T21:01:11.382Z,98758.56
2023-01-17T21:03:39.658Z,98749.06
2023-01-17T21:06:09.165Z,98739.91
2023-01-17T21:08:38.522Z,98751.25
2023-01-17T21:11:06.578Z,98741.47
2023-01-17T21:13:33.983Z,98740.63
2023-01-17T21:16:01.545Z,98751.72
2023-01-17T21:18:33.307Z,98744.19
2023-01-17T21:21:05.735Z,98753.25
2023-01-17T21:23:33.464Z,98753.69
2023-01-17T21:26:00.404Z,98746.56
2023-01-17T21:28:33.599Z,98731.47
2023-01-17T21:31:00.864Z,98721.78
2023-01-17T21:33:29.515Z,98718.22
2023-01-17T21:36:07.941Z,98710.56
2023-01-17T21:38:35.427Z,98707.47
2023-01-17T21:41:02.519Z,98694.41
2023-01-17T21:43:29.566Z,98703.56
2023-01-17T21:45:56.481Z,98699.81
2023-01-17T21:48:23.318Z,98698.47
2023-01-17T21:50:52.677Z,98700.00
2023-01-17T21:53:19.756Z,98706.88
2023-01-17T21:56:05.333Z,98714.66
2023-01-17T21:58:44.523Z,98706.91
2023-01-17T22:01:18.133Z,98711.38
2023-01-17T22:03:49.388Z,98706.22
2023-01-17T22:06:16.554Z,98708.19
2023-01-17T22:08:44.422Z,98707.59
2023-01-17T22:11:17.240Z,98703.13
2023-01-17T22:13:45.085Z,98691.69
2023-01-17T22:16:18.033Z,98689.59
2023-01-17T22:18:45.642Z,98693.38
2023-01-17T22:21:18.100Z,98696.63
2023-01-17T22:23:47.338Z,98694.25
2023-01-17T22:26:14.905Z,98692.75
2023-01-17T22:28:42.308Z,98688.97
2023-01-17T22:31:11.451Z,98686.19
2023-01-17T22:33:39.348Z,98677.56
2023-01-17T22:36:07.586Z,98671.88
2023-01-17T22:38:35.317Z,98680.50
2023-01-17T22:41:09.908Z,98675.09
2023-01-17T22:43:39.658Z,98691.34
2023-01-17T22:46:08.803Z,98679.78
2023-01-17T22:48:37.219Z,98682.97
2023-01-17T22:51:05.253Z,98669.03
2023-01-17T22:53:32.393Z,98667.97
2023-01-17T22:56:07.443Z,98670.88
2023-01-17T22:58:35.248Z,98662.09
2023-01-17T23:01:06.625Z,98658.50
2023-01-17T23:03:34.803Z,98651.91
2023-01-17T23:06:12.879Z,98664.88
2023-01-17T23:08:40.681Z,98665.00
2023-01-17T23:11:36.536Z,98663.97
2023-01-17T23:14:03.503Z,98668.44
2023-01-17T23:16:48.889Z,98667.69
2023-01-17T23:19:25.020Z,98674.81
2023-01-17T23:22:15.773Z,98679.41
2023-01-17T23:24:58.594Z,98684.22
2023-01-17T23:27:57.250Z,98669.06
2023-01-17T23:30:34.666Z,98664.66
2023-01-17T23:33:04.375Z,98667.31
2023-01-17T23:35:34.977Z,98664.25
2023-01-17T23:38:21.077Z,98659.13
2023-01-17T23:41:07.875Z,98661.66
2023-01-17T23:43:35.793Z,98655.63
2023-01-17T23:46:04.135Z,98653.44
2023-01-17T23:48:31.670Z,98657.38
2023-01-17T23:51:00.831Z,98655.84
2023-01-17T23:53:28.233Z,98663.78
2023-01-17T23:55:56.896Z,98662.72
2023-01-17T23:58:26.141Z,98670.09
